createdAt,value
2017-09-11T00:02:14.552Z,73.20
2017-09-11T00:04:42.038Z,73.10
2017-09-11T00:07:09.543Z,72.90
2017-09-11T00:09:37.786Z,72.80
2017-09-11T00:12:06.230Z,72.70
2017-09-11T00:14:34.471Z,72.90
2017-09-11T00:17:02.038Z,72.80
2017-09-11T00:19:30.295Z,72.90
2017-09-11T00:21:58.541Z,73.10
2017-09-11T00:24:26.041Z,73.00
2017-09-11T00:26:54.266Z,72.50
2017-09-11T00:29:21.770Z,72.50
2017-09-11T00:31:50.030Z,72.30
2017-09-11T00:34:17.533Z,72.70
2017-09-11T00:36:45.051Z,72.50
2017-09-11T00:39:12.539Z,72.50
2017-09-11T00:41:40.024Z,72.80
2017-09-11T00:44:08.280Z,72.90
2017-09-11T00:46:36.521Z,73.10
2017-09-11T00:49:04.028Z,73.00
2017-09-11T00:51:32.286Z,72.60
2017-09-11T00:54:00.519Z,72.80
2017-09-11T00:56:28.768Z,72.90
2017-09-11T00:58:56.249Z,72.90
2017-09-11T01:01:23.792Z,72.70
2017-09-11T01:03:51.327Z,72.70
2017-09-11T01:06:18.835Z,72.80
2017-09-11T01:08:46.315Z,73.00
2017-09-11T01:11:13.824Z,73.00
2017-09-11T01:13:41.393Z,73.00
2017-09-11T01:16:08.878Z,73.80
2017-09-11T01:18:37.227Z,72.80
2017-09-11T01:21:04.714Z,72.80
2017-09-11T01:23:32.194Z,72.90
2017-09-11T01:25:59.697Z,72.90
2017-09-11T01:28:27.946Z,72.80
2017-09-11T01:30:55.426Z,72.70
2017-09-11T01:33:22.925Z,72.80
2017-09-11T01:35:51.175Z,72.50
2017-09-11T01:38:18.657Z,72.60
2017-09-11T01:40:49.014Z,72.50
2017-09-11T01:43:28.000Z,72.60
2017-09-11T01:45:55.515Z,72.60
2017-09-11T01:48:23.107Z,72.60
2017-09-11T01:50:50.593Z,72.70
2017-09-11T01:53:18.121Z,72.80
2017-09-11T01:55:45.601Z,72.80
2017-09-11T01:58:13.877Z,72.90
2017-09-11T02:00:42.113Z,72.80
2017-09-11T02:03:09.581Z,72.80
2017-09-11T02:05:37.837Z,72.60
2017-09-11T02:08:06.258Z,72.50
2017-09-11T02:10:33.762Z,72.50
2017-09-11T02:13:01.228Z,72.20
2017-09-11T02:15:35.509Z,72.00
2017-09-11T02:18:03.124Z,71.90
2017-09-11T02:23:14.093Z,71.60
2017-09-11T02:25:42.339Z,71.60
2017-09-11T02:28:09.825Z,71.70
2017-09-11T02:30:37.322Z,71.90
2017-09-11T02:33:04.798Z,71.80
2017-09-11T02:35:33.070Z,72.00
2017-09-11T02:38:02.053Z,72.00
2017-09-11T02:40:29.524Z,72.00
2017-09-11T02:42:59.900Z,72.00
2017-09-11T02:48:36.444Z,71.90
2017-09-11T02:51:04.731Z,71.90
2017-09-11T02:53:38.138Z,71.90
2017-09-11T02:56:11.267Z,72.10
2017-09-11T02:58:46.376Z,72.00
2017-09-11T03:01:17.471Z,71.90
2017-09-11T03:04:01.498Z,72.00
2017-09-11T03:09:14.918Z,71.90
2017-09-11T03:11:42.387Z,71.90
2017-09-11T03:14:09.847Z,72.20
2017-09-11T03:16:37.435Z,72.30
2017-09-11T03:19:04.897Z,72.20
2017-09-11T03:21:32.389Z,72.10
2017-09-11T03:24:02.575Z,72.00
2017-09-11T03:26:30.806Z,72.10
2017-09-11T03:28:58.298Z,72.00
2017-09-11T03:31:25.776Z,72.20
2017-09-11T03:33:57.075Z,72.10
2017-09-11T03:36:24.604Z,72.20
2017-09-11T03:38:52.109Z,72.40
2017-09-11T03:41:19.578Z,72.20
2017-09-11T03:43:47.053Z,72.20
2017-09-11T03:46:14.581Z,72.00
2017-09-11T03:48:45.763Z,71.90
2017-09-11T03:51:15.163Z,72.20
2017-09-11T03:53:42.618Z,72.30
2017-09-11T03:56:11.888Z,72.80
2017-09-11T03:58:40.356Z,72.80
2017-09-11T04:01:07.879Z,72.90
2017-09-11T04:03:39.096Z,72.60
2017-09-11T04:06:06.739Z,72.80
2017-09-11T04:08:35.168Z,72.50
2017-09-11T04:11:02.705Z,72.60
2017-09-11T04:13:30.268Z,72.50
2017-09-11T04:15:58.683Z,72.50
2017-09-11T04:18:26.159Z,72.40
2017-09-11T04:20:53.633Z,72.40
2017-09-11T04:23:21.170Z,72.50
2017-09-11T04:25:49.577Z,72.40
2017-09-11T04:28:17.080Z,72.30
2017-09-11T04:30:44.619Z,71.90
2017-09-11T04:33:12.087Z,71.70
2017-09-11T04:35:39.545Z,71.80
2017-09-11T04:38:07.011Z,71.40
2017-09-11T04:40:34.631Z,71.50
2017-09-11T04:43:02.099Z,71.60
2017-09-11T04:45:29.642Z,71.50
2017-09-11T04:47:57.123Z,71.70
2017-09-11T04:50:25.337Z,71.60
2017-09-11T04:52:52.798Z,71.50
2017-09-11T04:55:20.281Z,71.70
2017-09-11T04:57:47.750Z,71.70
2017-09-11T05:00:15.207Z,71.80
2017-09-11T05:02:42.728Z,71.80
2017-09-11T05:05:10.996Z,71.90
2017-09-11T05:07:38.447Z,71.80
2017-09-11T05:10:06.062Z,71.50
2017-09-11T05:12:33.935Z,71.40
2017-09-11T05:15:02.167Z,71.30
2017-09-11T05:17:29.625Z,71.30
2017-09-11T05:19:57.100Z,71.10
2017-09-11T05:22:24.620Z,70.90
2017-09-11T05:24:52.854Z,70.70
2017-09-11T05:27:20.336Z,70.70
2017-09-11T05:29:47.799Z,70.30
2017-09-11T05:32:15.266Z,70.20
2017-09-11T05:34:42.715Z,70.00
2017-09-11T05:37:10.159Z,70.00
2017-09-11T05:39:38.423Z,69.80
2017-09-11T05:42:06.011Z,69.70
2017-09-11T05:44:34.355Z,69.80
2017-09-11T05:47:01.816Z,69.70
2017-09-11T05:49:29.295Z,69.80
2017-09-11T05:51:56.745Z,69.50
2017-09-11T05:54:24.227Z,69.20
2017-09-11T05:56:51.723Z,69.10
2017-09-11T05:59:19.272Z,69.00
2017-09-11T06:01:46.796Z,68.60
2017-09-11T06:04:15.082Z,68.40
2017-09-11T06:06:42.591Z,68.40
2017-09-11T06:09:10.095Z,69.10
2017-09-11T06:11:38.334Z,67.10
2017-09-11T06:14:05.850Z,67.00
2017-09-11T06:16:33.335Z,66.50
2017-09-11T06:19:00.907Z,65.60
2017-09-11T06:21:28.386Z,65.10
2017-09-11T06:23:55.860Z,64.30
2017-09-11T06:26:23.414Z,63.60
2017-09-11T06:28:50.914Z,63.00
2017-09-11T06:31:19.153Z,62.10
2017-09-11T06:33:46.614Z,62.10
2017-09-11T06:36:14.099Z,61.90
2017-09-11T06:38:41.632Z,61.60
2017-09-11T06:41:09.112Z,61.10
2017-09-11T06:43:36.634Z,60.90
2017-09-11T06:46:04.354Z,60.60
2017-09-11T06:48:31.805Z,60.70
2017-09-11T06:51:00.059Z,60.40
2017-09-11T06:53:27.540Z,60.40
2017-09-11T06:55:55.021Z,60.50
2017-09-11T06:58:22.529Z,59.80
2017-09-11T07:00:50.027Z,58.90
2017-09-11T07:03:17.516Z,58.20
2017-09-11T07:05:44.993Z,58.40
2017-09-11T07:08:12.466Z,57.90
2017-09-11T07:10:39.951Z,58.00
2017-09-11T07:13:20.075Z,57.50
2017-09-11T07:15:47.583Z,57.50
2017-09-11T07:18:15.845Z,58.00
2017-09-11T07:20:43.311Z,58.00
2017-09-11T07:23:10.859Z,57.90
2017-09-11T07:25:38.361Z,58.00
2017-09-11T07:28:05.926Z,58.20
2017-09-11T07:30:33.428Z,58.10
2017-09-11T07:33:01.676Z,58.50
2017-09-11T07:35:29.170Z,58.40
2017-09-11T07:37:57.642Z,58.60
2017-09-11T07:40:25.135Z,58.00
2017-09-11T07:42:52.630Z,58.30
2017-09-11T07:45:20.863Z,58.00
2017-09-11T07:47:48.339Z,57.90
2017-09-11T07:50:15.895Z,57.10
2017-09-11T07:52:43.399Z,56.80
2017-09-11T07:55:10.874Z,55.90
2017-09-11T07:57:39.114Z,54.80
2017-09-11T08:00:06.664Z,54.80
2017-09-11T08:02:34.110Z,55.00
2017-09-11T08:05:02.342Z,53.70
2017-09-11T08:07:29.798Z,53.70
2017-09-11T08:09:57.307Z,53.80
2017-09-11T08:12:24.897Z,52.80
2017-09-11T08:14:52.426Z,53.00
2017-09-11T08:17:20.831Z,53.50
2017-09-11T08:19:48.299Z,53.20
2017-09-11T08:22:15.778Z,52.30
2017-09-11T08:24:43.233Z,53.10
2017-09-11T08:27:10.754Z,52.40
2017-09-11T08:29:38.272Z,52.70
2017-09-11T08:32:05.815Z,52.70
2017-09-11T08:34:33.284Z,51.80
2017-09-11T08:37:00.739Z,51.60
2017-09-11T08:39:28.957Z,51.40
2017-09-11T08:41:57.213Z,51.30
2017-09-11T08:44:25.466Z,51.90
2017-09-11T08:46:52.923Z,51.90
2017-09-11T08:49:20.516Z,52.50
2017-09-11T08:51:48.018Z,52.20
2017-09-11T08:54:16.270Z,53.40
2017-09-11T08:56:43.751Z,53.30
2017-09-11T08:59:11.240Z,53.70
2017-09-11T09:01:39.486Z,53.90
2017-09-11T09:04:06.969Z,53.80
2017-09-11T09:06:34.439Z,53.90
2017-09-11T09:09:01.917Z,53.90
2017-09-11T09:11:29.375Z,54.60
2017-09-11T09:13:56.860Z,54.60
2017-09-11T09:16:24.382Z,54.60
2017-09-11T09:18:51.872Z,55.30
2017-09-11T09:21:19.357Z,55.20
2017-09-11T09:23:46.848Z,54.30
2017-09-11T09:26:14.346Z,53.90
2017-09-11T09:28:41.969Z,54.00
2017-09-11T09:31:09.432Z,53.60
2017-09-11T09:33:36.936Z,53.20
2017-09-11T09:36:05.197Z,52.50
2017-09-11T09:38:32.652Z,52.40
2017-09-11T09:41:00.210Z,51.20
2017-09-11T09:43:27.704Z,51.30
2017-09-11T09:45:55.211Z,51.20
2017-09-11T09:48:23.505Z,49.90
2017-09-11T09:50:51.755Z,50.20
2017-09-11T09:53:19.256Z,50.20
2017-09-11T09:55:48.455Z,50.10
2017-09-11T09:58:17.181Z,50.50
2017-09-11T10:00:44.694Z,50.50
2017-09-11T10:03:12.170Z,50.60
2017-09-11T10:05:39.665Z,50.60
2017-09-11T10:08:07.388Z,50.30
2017-09-11T10:10:34.877Z,50.10
2017-09-11T10:13:02.411Z,49.90
2017-09-11T10:15:30.677Z,48.60
2017-09-11T10:17:58.334Z,48.60
2017-09-11T10:20:25.999Z,48.80
2017-09-11T10:22:53.515Z,48.50
2017-09-11T10:25:21.802Z,48.90
2017-09-11T10:27:50.030Z,48.40
2017-09-11T10:30:17.518Z,48.40
2017-09-11T10:32:45.101Z,48.20
2017-09-11T10:35:12.592Z,47.50
2017-09-11T10:37:41.033Z,47.30
2017-09-11T10:40:08.504Z,45.90
2017-09-11T10:42:36.143Z,43.80
2017-09-11T10:45:03.622Z,39.70
2017-09-11T10:50:07.927Z,33.60
2017-09-11T10:52:35.388Z,32.20
2017-09-11T10:55:03.734Z,30.40
2017-09-11T10:57:31.227Z,30.40
2017-09-11T10:59:58.718Z,30.60
2017-09-11T11:02:26.239Z,31.20
2017-09-11T11:04:53.754Z,31.80
2017-09-11T11:07:21.991Z,31.30
2017-09-11T11:09:49.482Z,31.20
2017-09-11T11:12:16.961Z,32.30
2017-09-11T11:14:44.449Z,33.80
2017-09-11T11:17:11.972Z,34.00
2017-09-11T11:19:40.228Z,35.70
2017-09-11T11:22:11.076Z,35.80
2017-09-11T11:24:40.638Z,36.60
2017-09-11T11:27:08.901Z,38.00
2017-09-11T11:29:36.392Z,37.90
2017-09-11T11:32:04.068Z,38.40
2017-09-11T11:34:31.631Z,39.60
2017-09-11T11:36:59.896Z,39.80
2017-09-11T11:39:27.374Z,39.80
2017-09-11T11:41:54.947Z,40.00
2017-09-11T11:44:22.521Z,40.90
2017-09-11T11:46:50.037Z,41.20
2017-09-11T11:49:17.530Z,42.40
2017-09-11T11:51:45.024Z,41.90
2017-09-11T11:54:12.660Z,42.30
2017-09-11T11:56:40.907Z,43.70
2017-09-11T11:59:08.413Z,43.70
2017-09-11T12:01:38.419Z,43.80
2017-09-11T12:04:06.202Z,43.10
2017-09-11T12:06:34.446Z,43.30
2017-09-11T12:09:02.986Z,43.40
2017-09-11T12:11:30.485Z,43.50
2017-09-11T12:13:58.058Z,43.50
2017-09-11T12:16:26.490Z,43.90
2017-09-11T12:18:54.001Z,42.90
2017-09-11T12:21:21.546Z,42.90
2017-09-11T12:23:49.038Z,43.20
2017-09-11T12:26:16.585Z,44.00
2017-09-11T12:28:44.107Z,43.80
2017-09-11T12:31:11.716Z,44.30
2017-09-11T12:33:39.989Z,44.20
2017-09-11T12:36:07.524Z,44.20
2017-09-11T12:38:35.025Z,44.20
2017-09-11T12:41:02.785Z,44.50
2017-09-11T12:43:30.303Z,44.60
2017-09-11T12:45:57.893Z,44.70
2017-09-11T12:48:25.393Z,44.80
2017-09-11T12:50:53.687Z,45.40
2017-09-11T12:53:22.065Z,45.30
2017-09-11T12:55:49.547Z,45.30
2017-09-11T12:58:17.189Z,45.80
2017-09-11T13:00:44.714Z,44.40
2017-09-11T13:03:12.235Z,44.60
2017-09-11T13:05:39.733Z,44.00
2017-09-11T13:08:08.928Z,45.00
2017-09-11T13:10:36.450Z,44.50
2017-09-11T13:13:03.937Z,44.70
2017-09-11T13:15:31.447Z,45.00
2017-09-11T13:17:58.992Z,45.70
2017-09-11T13:20:26.609Z,45.50
2017-09-11T13:22:54.168Z,45.60
2017-09-11T13:25:21.631Z,46.00
2017-09-11T13:27:49.915Z,45.60
2017-09-11T13:30:17.414Z,45.10
2017-09-11T13:32:45.675Z,45.10
2017-09-11T13:35:13.998Z,44.90
2017-09-11T13:37:41.655Z,44.80
2017-09-11T13:40:09.173Z,45.40
2017-09-11T13:42:36.652Z,45.40
2017-09-11T13:45:04.137Z,46.00
2017-09-11T13:47:31.773Z,45.30
2017-09-11T13:50:00.512Z,45.90
2017-09-11T13:52:28.065Z,45.80
2017-09-11T13:54:55.763Z,45.90
2017-09-11T13:57:24.228Z,45.60
2017-09-11T13:59:51.871Z,45.70
2017-09-11T14:02:20.131Z,45.90
2017-09-11T14:04:48.400Z,45.50
2017-09-11T14:07:15.894Z,45.50
2017-09-11T14:09:43.445Z,45.70
2017-09-11T14:12:10.932Z,45.60
2017-09-11T14:14:38.414Z,46.20
2017-09-11T14:17:06.000Z,45.50
2017-09-11T14:19:33.647Z,46.20
2017-09-11T14:22:02.114Z,45.80
2017-09-11T14:24:39.089Z,45.50
2017-09-11T14:27:06.913Z,45.00
2017-09-11T14:29:35.220Z,45.60
2017-09-11T14:32:05.678Z,45.70
2017-09-11T14:34:38.888Z,45.70
2017-09-11T14:37:07.590Z,45.70
2017-09-11T14:39:35.112Z,46.00
2017-09-11T14:42:07.229Z,46.70
2017-09-11T14:44:35.499Z,46.40
2017-09-11T14:47:02.979Z,46.40
2017-09-11T14:49:30.476Z,46.20
2017-09-11T14:51:57.980Z,46.50
2017-09-11T14:54:26.326Z,46.40
2017-09-11T14:56:53.862Z,46.50
2017-09-11T14:59:21.460Z,46.30
2017-09-11T15:01:48.952Z,46.10
2017-09-11T15:04:16.492Z,46.60
2017-09-11T15:06:43.992Z,46.50
2017-09-11T15:09:11.501Z,46.40
2017-09-11T15:11:38.984Z,46.90
2017-09-11T15:14:06.502Z,46.60
2017-09-11T15:16:34.059Z,46.70
2017-09-11T15:19:01.548Z,46.90
2017-09-11T15:21:29.070Z,47.10
2017-09-11T15:23:56.595Z,47.40
2017-09-11T15:26:24.232Z,47.30
2017-09-11T15:28:51.785Z,47.30
2017-09-11T15:31:19.272Z,47.60
2017-09-11T15:33:46.776Z,48.10
2017-09-11T15:36:14.367Z,48.40
2017-09-11T15:38:42.646Z,48.50
2017-09-11T15:41:10.136Z,49.00
2017-09-11T15:43:37.678Z,49.20
2017-09-11T15:46:05.987Z,49.30
2017-09-11T15:48:33.632Z,49.40
2017-09-11T15:51:01.244Z,49.20
2017-09-11T15:53:29.735Z,49.80
2017-09-11T15:55:58.001Z,50.00
2017-09-11T15:58:25.539Z,49.90
2017-09-11T16:00:53.045Z,50.00
2017-09-11T16:03:20.553Z,50.50
2017-09-11T16:05:48.016Z,50.30
2017-09-11T16:08:15.509Z,50.60
2017-09-11T16:10:43.052Z,50.50
2017-09-11T16:13:10.722Z,50.50
2017-09-11T16:15:39.188Z,50.50
2017-09-11T16:18:07.044Z,50.60
2017-09-11T16:20:34.546Z,50.40
2017-09-11T16:23:02.091Z,50.80
2017-09-11T16:25:29.582Z,51.00
2017-09-11T16:27:57.081Z,51.00
2017-09-11T16:30:25.167Z,50.90
2017-09-11T16:32:52.667Z,50.80
2017-09-11T16:35:20.967Z,49.80
2017-09-11T16:37:49.222Z,49.60
2017-09-11T16:40:16.701Z,49.70
2017-09-11T16:42:44.223Z,49.40
2017-09-11T16:45:11.743Z,49.20
2017-09-11T16:47:40.017Z,49.00
2017-09-11T16:50:09.783Z,48.90
2017-09-11T16:52:37.265Z,48.90
2017-09-11T16:55:04.763Z,48.10
2017-09-11T16:57:32.249Z,48.20
2017-09-11T16:59:59.858Z,48.30
2017-09-11T17:02:28.148Z,48.20
2017-09-11T17:04:55.634Z,48.20
2017-09-11T17:07:23.140Z,48.20
2017-09-11T17:09:50.766Z,48.00
2017-09-11T17:12:18.437Z,48.10
2017-09-11T17:14:45.931Z,48.20
2017-09-11T17:17:14.177Z,48.40
2017-09-11T17:19:41.655Z,48.40
2017-09-11T17:22:09.126Z,48.50
2017-09-11T17:24:37.434Z,48.90
2017-09-11T17:27:04.921Z,49.00
2017-09-11T17:29:32.409Z,49.10
2017-09-11T17:32:00.710Z,49.00
2017-09-11T17:34:29.134Z,49.30
2017-09-11T17:36:56.649Z,49.20
2017-09-11T17:39:24.186Z,49.40
2017-09-11T17:41:51.796Z,49.40
2017-09-11T17:44:19.273Z,49.60
2017-09-11T17:46:46.953Z,49.70
2017-09-11T17:49:14.450Z,49.40
2017-09-11T17:51:41.944Z,49.30
2017-09-11T17:54:09.444Z,49.60
2017-09-11T17:56:37.722Z,49.50
2017-09-11T17:59:05.240Z,49.50
2017-09-11T18:01:33.511Z,49.70
2017-09-11T18:04:01.237Z,49.90
2017-09-11T18:06:28.721Z,49.60
2017-09-11T18:08:56.235Z,49.60
2017-09-11T18:11:23.854Z,49.70
2017-09-11T18:13:51.490Z,49.60
2017-09-11T18:16:19.124Z,49.80
2017-09-11T18:18:46.631Z,49.80
2017-09-11T18:21:14.893Z,50.00
2017-09-11T18:23:42.520Z,50.00
2017-09-11T18:26:10.799Z,50.30
2017-09-11T18:28:38.282Z,50.30
2017-09-11T18:31:05.950Z,50.40
2017-09-11T18:33:33.568Z,50.60
2017-09-11T18:36:01.036Z,50.70
2017-09-11T18:38:28.591Z,50.80
2017-09-11T18:40:56.272Z,51.20
2017-09-11T18:43:23.834Z,51.40
2017-09-11T18:45:51.418Z,51.40
2017-09-11T18:48:19.673Z,51.60
2017-09-11T18:50:47.352Z,51.60
2017-09-11T18:53:14.835Z,51.50
2017-09-11T18:55:42.331Z,51.60
2017-09-11T18:58:10.857Z,52.10
2017-09-11T19:00:38.361Z,51.90
2017-09-11T19:03:05.958Z,52.50
2017-09-11T19:05:33.545Z,52.10
2017-09-11T19:08:01.043Z,52.30
2017-09-11T19:10:28.561Z,52.40
2017-09-11T19:12:56.879Z,52.90
2017-09-11T19:15:24.410Z,52.90
2017-09-11T19:17:51.940Z,52.80
2017-09-11T19:20:19.451Z,53.00
2017-09-11T19:22:47.723Z,53.40
2017-09-11T19:25:15.193Z,53.50
2017-09-11T19:27:42.700Z,53.40
2017-09-11T19:30:10.185Z,53.30
2017-09-11T19:32:37.673Z,53.70
2017-09-11T19:35:06.122Z,53.70
2017-09-11T19:37:34.392Z,53.60
2017-09-11T19:40:02.639Z,53.70
2017-09-11T19:42:30.582Z,53.70
2017-09-11T19:44:59.438Z,53.60
2017-09-11T19:47:26.926Z,53.60
2017-09-11T19:49:54.584Z,54.00
2017-09-11T19:52:22.091Z,54.10
2017-09-11T19:54:50.351Z,54.20
2017-09-11T19:57:17.853Z,54.20
2017-09-11T19:59:45.470Z,54.20
2017-09-11T20:02:12.981Z,54.10
2017-09-11T20:04:40.468Z,54.30
2017-09-11T20:07:08.041Z,54.40
2017-09-11T20:09:36.307Z,54.20
2017-09-11T20:12:04.542Z,54.20
2017-09-11T20:14:32.478Z,54.20
2017-09-11T20:16:59.943Z,54.10
2017-09-11T20:19:27.439Z,54.00
2017-09-11T20:21:54.964Z,54.10
2017-09-11T20:24:23.235Z,53.90
2017-09-11T20:26:50.743Z,54.00
2017-09-11T20:29:18.253Z,53.90
2017-09-11T20:31:45.738Z,54.00
2017-09-11T20:34:13.304Z,53.90
2017-09-11T20:36:40.798Z,53.90
2017-09-11T20:39:08.347Z,54.10
2017-09-11T20:41:35.870Z,54.30
2017-09-11T20:44:03.348Z,54.10
2017-09-11T20:46:30.865Z,54.00
2017-09-11T20:48:59.090Z,53.90
2017-09-11T20:51:31.074Z,53.80
2017-09-11T20:53:58.640Z,54.00
2017-09-11T20:56:26.912Z,53.80
2017-09-11T20:58:54.404Z,53.80
2017-09-11T21:01:21.920Z,53.90
2017-09-11T21:03:49.418Z,53.80
2017-09-11T21:06:17.684Z,53.60
2017-09-11T21:08:45.199Z,53.60
2017-09-11T21:11:14.518Z,53.90
2017-09-11T21:13:42.060Z,53.80
2017-09-11T21:16:09.564Z,53.70
2017-09-11T21:18:37.090Z,53.70
2017-09-11T21:24:24.840Z,53.20
2017-09-11T21:26:52.341Z,53.30
2017-09-11T21:29:19.866Z,53.60
2017-09-11T21:31:47.500Z,53.50
2017-09-11T21:34:14.995Z,53.60
2017-09-11T21:36:42.463Z,53.50
2017-09-11T21:39:10.707Z,53.70
2017-09-11T21:41:38.250Z,53.70
2017-09-11T21:44:05.832Z,53.70
2017-09-11T21:46:33.318Z,53.80
2017-09-11T21:49:01.575Z,53.50
2017-09-11T21:51:29.084Z,53.40
2017-09-11T21:53:56.551Z,53.50
2017-09-11T21:56:24.157Z,53.50
2017-09-11T21:58:52.435Z,53.60
2017-09-11T22:01:19.903Z,53.60
2017-09-11T22:03:48.180Z,53.20
2017-09-11T22:06:15.713Z,53.60
2017-09-11T22:08:43.199Z,53.80
2017-09-11T22:11:10.689Z,53.60
2017-09-11T22:13:38.956Z,53.50
2017-09-11T22:16:06.645Z,53.70
2017-09-11T22:18:34.165Z,54.00
2017-09-11T22:21:01.684Z,53.50
2017-09-11T22:23:29.245Z,53.50
2017-09-11T22:25:57.518Z,53.40
2017-09-11T22:28:25.026Z,53.40
2017-09-11T22:30:52.592Z,53.20
2017-09-11T22:33:20.093Z,53.40
2017-09-11T22:35:47.580Z,53.80
2017-09-11T22:38:15.072Z,53.50
2017-09-11T22:40:43.335Z,53.50
2017-09-11T22:43:11.610Z,53.40
2017-09-11T22:45:39.096Z,53.40
2017-09-11T22:48:06.698Z,53.30
2017-09-11T22:50:34.937Z,53.20
2017-09-11T22:53:03.170Z,52.90
2017-09-11T22:55:31.456Z,53.10
2017-09-11T22:57:59.711Z,52.60
2017-09-11T23:00:27.819Z,52.60
2017-09-11T23:02:55.321Z,52.60
2017-09-11T23:05:23.660Z,52.40
2017-09-11T23:07:51.196Z,52.40
2017-09-11T23:10:18.687Z,52.40
2017-09-11T23:12:46.160Z,52.40
2017-09-11T23:15:14.408Z,52.60
2017-09-11T23:17:42.639Z,52.50
2017-09-11T23:20:11.575Z,52.50
2017-09-11T23:22:39.824Z,52.40
2017-09-11T23:25:08.305Z,52.40
2017-09-11T23:27:35.785Z,52.90
2017-09-11T23:30:04.098Z,53.00
2017-09-11T23:32:32.411Z,52.90
2017-09-11T23:34:59.877Z,53.00
2017-09-11T23:37:27.378Z,52.80
2017-09-11T23:39:54.859Z,53.00
2017-09-11T23:42:22.353Z,53.00
2017-09-11T23:44:50.624Z,53.00
2017-09-11T23:47:18.097Z,53.00
2017-09-11T23:49:45.706Z,53.00
2017-09-11T23:52:13.972Z,53.00
2017-09-11T23:54:41.452Z,53.60
2017-09-11T23:57:09.060Z,53.00
2017-09-11T23:59:36.565Z,52.90
